sensor_id;sensor_type;location;lat;lon;timestamp;P1;durP1;ratioP1;P2;durP2;ratioP2
990;SDS011;484;48.128;11.602;2022-10-16T00:00:52;1.50;;;1.40;;
990;SDS011;484;48.128;11.602;2022-10-16T00:03:38;1.40;;;1.30;;
990;SDS011;484;48.128;11.602;2022-10-16T00:06:24;1.50;;;1.40;;
990;SDS011;484;48.128;11.602;2022-10-16T00:09:15;1.23;;;1.20;;
990;SDS011;484;48.128;11.602;2022-10-16T00:12:04;1.13;;;1.13;;
990;SDS011;484;48.128;11.602;2022-10-16T00:14:50;1.30;;;1.20;;
990;SDS011;484;48.128;11.602;2022-10-16T00:17:35;1.33;;;1.23;;
990;SDS011;484;48.128;11.602;2022-10-16T00:20:21;1.23;;;1.20;;
990;SDS011;484;48.128;11.602;2022-10-16T00:23:06;1.00;;;1.00;;
990;SDS011;484;48.128;11.602;2022-10-16T00:25:54;1.27;;;1.17;;
990;SDS011;484;48.128;11.602;2022-10-16T00:28:42;1.50;;;1.40;;
990;SDS011;484;48.128;11.602;2022-10-16T00:31:30;1.40;;;1.30;;
990;SDS011;484;48.128;11.602;2022-10-16T00:34:15;1.40;;;1.30;;
990;SDS011;484;48.128;11.602;2022-10-16T00:37:00;2.20;;;1.30;;
990;SDS011;484;48.128;11.602;2022-10-16T00:39:46;1.47;;;1.37;;
990;SDS011;484;48.128;11.602;2022-10-16T00:42:31;1.40;;;1.30;;
990;SDS011;484;48.128;11.602;2022-10-16T00:45:19;1.27;;;1.17;;
990;SDS011;484;48.128;11.602;2022-10-16T00:48:06;1.90;;;1.27;;
990;SDS011;484;48.128;11.602;2022-10-16T00:50:56;1.00;;;1.00;;
990;SDS011;484;48.128;11.602;2022-10-16T00:53:43;1.47;;;1.23;;
990;SDS011;484;48.128;11.602;2022-10-16T00:56:29;1.30;;;1.20;;
990;SDS011;484;48.128;11.602;2022-10-16T00:59:15;2.03;;;1.20;;
990;SDS011;484;48.128;11.602;2022-10-16T01:02:05;1.20;;;1.10;;
990;SDS011;484;48.128;11.602;2022-10-16T01:04:53;0.90;;;0.90;;
990;SDS011;484;48.128;11.602;2022-10-16T01:07:41;1.43;;;1.33;;
990;SDS011;484;48.128;11.602;2022-10-16T01:10:33;5.10;;;1.60;;
990;SDS011;484;48.128;11.602;2022-10-16T01:13:21;0.97;;;0.97;;
990;SDS011;484;48.128;11.602;2022-10-16T01:16:09;1.37;;;1.27;;
990;SDS011;484;48.128;11.602;2022-10-16T01:19:01;1.00;;;1.00;;
990;SDS011;484;48.128;11.602;2022-10-16T01:21:49;1.40;;;1.00;;
990;SDS011;484;48.128;11.602;2022-10-16T01:24:38;1.03;;;1.03;;
990;SDS011;484;48.128;11.602;2022-10-16T01:27:26;1.07;;;1.07;;
990;SDS011;484;48.128;11.602;2022-10-16T01:30:13;1.70;;;1.30;;
990;SDS011;484;48.128;11.602;2022-10-16T01:33:02;1.20;;;1.10;;
990;SDS011;484;48.128;11.602;2022-10-16T01:35:52;2.20;;;1.63;;
990;SDS011;484;48.128;11.602;2022-10-16T01:38:39;1.03;;;1.03;;
990;SDS011;484;48.128;11.602;2022-10-16T01:41:26;1.40;;;1.30;;
990;SDS011;484;48.128;11.602;2022-10-16T01:44:17;3.90;;;1.40;;
990;SDS011;484;48.128;11.602;2022-10-16T01:47:04;1.37;;;1.27;;
990;SDS011;484;48.128;11.602;2022-10-16T01:49:51;1.23;;;1.13;;
990;SDS011;484;48.128;11.602;2022-10-16T01:52:38;2.60;;;2.40;;
990;SDS011;484;48.128;11.602;2022-10-16T01:55:27;0.93;;;0.93;;
990;SDS011;484;48.128;11.602;2022-10-16T01:58:14;1.30;;;1.20;;
990;SDS011;484;48.128;11.602;2022-10-16T02:01:01;0.83;;;0.83;;
990;SDS011;484;48.128;11.602;2022-10-16T02:03:48;0.90;;;0.90;;
990;SDS011;484;48.128;11.602;2022-10-16T02:06:35;1.10;;;0.97;;
990;SDS011;484;48.128;11.602;2022-10-16T02:09:21;1.00;;;0.90;;
990;SDS011;484;48.128;11.602;2022-10-16T02:12:08;1.00;;;1.00;;
990;SDS011;484;48.128;11.602;2022-10-16T02:14:55;1.00;;;1.00;;
990;SDS011;484;48.128;11.602;2022-10-16T02:17:42;0.83;;;0.83;;
990;SDS011;484;48.128;11.602;2022-10-16T02:20:28;1.10;;;1.00;;
990;SDS011;484;48.128;11.602;2022-10-16T02:23:17;0.90;;;0.90;;
990;SDS011;484;48.128;11.602;2022-10-16T02:26:07;0.90;;;0.90;;
990;SDS011;484;48.128;11.602;2022-10-16T02:28:54;1.70;;;1.00;;
990;SDS011;484;48.128;11.602;2022-10-16T02:31:43;1.67;;;1.57;;
990;SDS011;484;48.128;11.602;2022-10-16T02:34:32;1.20;;;1.10;;
990;SDS011;484;48.128;11.602;2022-10-16T02:37:17;1.00;;;1.00;;
990;SDS011;484;48.128;11.602;2022-10-16T02:40:04;1.50;;;1.40;;
990;SDS011;484;48.128;11.602;2022-10-16T02:42:51;1.07;;;0.87;;
990;SDS011;484;48.128;11.602;2022-10-16T02:45:37;1.27;;;1.10;;
990;SDS011;484;48.128;11.602;2022-10-16T02:48:22;0.90;;;0.90;;
990;SDS011;484;48.128;11.602;2022-10-16T02:51:09;1.30;;;1.23;;
990;SDS011;484;48.128;11.602;2022-10-16T02:53:55;0.80;;;0.80;;
990;SDS011;484;48.128;11.602;2022-10-16T02:56:40;0.73;;;0.73;;
990;SDS011;484;48.128;11.602;2022-10-16T02:59:26;0.97;;;0.97;;
990;SDS011;484;48.128;11.602;2022-10-16T03:02:11;1.00;;;1.00;;
990;SDS011;484;48.128;11.602;2022-10-16T03:04:57;1.10;;;1.10;;
990;SDS011;484;48.128;11.602;2022-10-16T03:07:43;0.80;;;0.80;;
990;SDS011;484;48.128;11.602;2022-10-16T03:10:29;1.37;;;1.27;;
990;SDS011;484;48.128;11.602;2022-10-16T03:13:15;1.13;;;1.13;;
990;SDS011;484;48.128;11.602;2022-10-16T03:16:00;1.17;;;1.00;;
990;SDS011;484;48.128;11.602;2022-10-16T03:18:47;1.00;;;1.00;;
990;SDS011;484;48.128;11.602;2022-10-16T03:21:33;0.80;;;0.80;;
990;SDS011;484;48.128;11.602;2022-10-16T03:24:20;1.17;;;1.10;;
990;SDS011;484;48.128;11.602;2022-10-16T03:27:05;0.80;;;0.80;;
990;SDS011;484;48.128;11.602;2022-10-16T03:29:51;1.57;;;1.10;;
990;SDS011;484;48.128;11.602;2022-10-16T03:32:37;1.33;;;1.17;;
990;SDS011;484;48.128;11.602;2022-10-16T03:35:22;1.20;;;1.20;;
990;SDS011;484;48.128;11.602;2022-10-16T03:38:08;1.17;;;1.10;;
990;SDS011;484;48.128;11.602;2022-10-16T03:40:55;1.50;;;1.40;;
990;SDS011;484;48.128;11.602;2022-10-16T03:43:40;1.03;;;0.97;;
990;SDS011;484;48.128;11.602;2022-10-16T03:46:26;1.10;;;1.03;;
990;SDS011;484;48.128;11.602;2022-10-16T03:49:11;0.93;;;0.93;;
990;SDS011;484;48.128;11.602;2022-10-16T03:51:56;0.90;;;0.87;;
990;SDS011;484;48.128;11.602;2022-10-16T03:54:42;0.80;;;0.80;;
990;SDS011;484;48.128;11.602;2022-10-16T03:57:29;1.17;;;1.17;;
990;SDS011;484;48.128;11.602;2022-10-16T04:00:15;5.00;;;1.20;;
990;SDS011;484;48.128;11.602;2022-10-16T04:03:00;1.30;;;1.20;;
990;SDS011;484;48.128;11.602;2022-10-16T04:05:46;1.00;;;1.00;;
990;SDS011;484;48.128;11.602;2022-10-16T04:08:32;0.97;;;0.97;;
990;SDS011;484;48.128;11.602;2022-10-16T04:11:18;1.30;;;1.20;;
990;SDS011;484;48.128;11.602;2022-10-16T04:14:05;1.10;;;1.00;;
990;SDS011;484;48.128;11.602;2022-10-16T04:16:50;1.10;;;0.90;;
990;SDS011;484;48.128;11.602;2022-10-16T04:19:36;1.27;;;0.80;;
990;SDS011;484;48.128;11.602;2022-10-16T04:22:21;1.50;;;1.40;;
990;SDS011;484;48.128;11.602;2022-10-16T04:25:07;1.33;;;1.10;;
990;SDS011;484;48.128;11.602;2022-10-16T04:27:53;1.00;;;1.00;;
990;SDS011;484;48.128;11.602;2022-10-16T04:30:40;0.90;;;0.90;;
990;SDS011;484;48.128;11.602;2022-10-16T04:33:26;0.93;;;0.93;;
990;SDS011;484;48.128;11.602;2022-10-16T04:36:11;0.97;;;0.90;;
990;SDS011;484;48.128;11.602;2022-10-16T04:38:57;1.00;;;1.00;;
990;SDS011;484;48.128;11.602;2022-10-16T04:41:43;0.97;;;0.97;;
990;SDS011;484;48.128;11.602;2022-10-16T04:44:28;1.00;;;1.00;;
990;SDS011;484;48.128;11.602;2022-10-16T04:47:15;0.97;;;0.97;;
990;SDS011;484;48.128;11.602;2022-10-16T04:50:00;1.00;;;1.00;;
990;SDS011;484;48.128;11.602;2022-10-16T04:52:46;0.93;;;0.93;;
990;SDS011;484;48.128;11.602;2022-10-16T04:55:32;1.10;;;1.00;;
990;SDS011;484;48.128;11.602;2022-10-16T04:58:17;1.73;;;1.40;;
990;SDS011;484;48.128;11.602;2022-10-16T05:01:03;1.53;;;1.23;;
990;SDS011;484;48.128;11.602;2022-10-16T05:03:49;1.00;;;1.00;;
990;SDS011;484;48.128;11.602;2022-10-16T05:06:35;1.30;;;1.30;;
990;SDS011;484;48.128;11.602;2022-10-16T05:09:20;1.00;;;1.00;;
990;SDS011;484;48.128;11.602;2022-10-16T05:12:06;1.47;;;1.37;;
990;SDS011;484;48.128;11.602;2022-10-16T05:14:51;1.00;;;1.00;;
990;SDS011;484;48.128;11.602;2022-10-16T05:17:37;1.27;;;1.27;;
990;SDS011;484;48.128;11.602;2022-10-16T05:20:24;1.33;;;1.23;;
990;SDS011;484;48.128;11.602;2022-10-16T05:23:09;1.00;;;1.00;;
990;SDS011;484;48.128;11.602;2022-10-16T05:25:56;3.97;;;1.20;;
990;SDS011;484;48.128;11.602;2022-10-16T05:28:42;1.57;;;1.07;;
990;SDS011;484;48.128;11.602;2022-10-16T05:31:28;1.13;;;1.03;;
990;SDS011;484;48.128;11.602;2022-10-16T05:34:13;1.33;;;1.23;;
990;SDS011;484;48.128;11.602;2022-10-16T05:37:00;1.10;;;1.00;;
990;SDS011;484;48.128;11.602;2022-10-16T05:39:45;1.40;;;1.30;;
990;SDS011;484;48.128;11.602;2022-10-16T05:42:31;1.23;;;1.13;;
990;SDS011;484;48.128;11.602;2022-10-16T05:45:16;0.90;;;0.90;;
990;SDS011;484;48.128;11.602;2022-10-16T05:48:02;0.77;;;0.77;;
990;SDS011;484;48.128;11.602;2022-10-16T05:50:47;1.50;;;1.40;;
990;SDS011;484;48.128;11.602;2022-10-16T05:53:34;0.93;;;0.93;;
990;SDS011;484;48.128;11.602;2022-10-16T05:56:21;1.20;;;1.10;;
990;SDS011;484;48.128;11.602;2022-10-16T05:59:06;1.73;;;1.60;;
990;SDS011;484;48.128;11.602;2022-10-16T06:01:52;1.10;;;1.03;;
990;SDS011;484;48.128;11.602;2022-10-16T06:04:37;1.40;;;1.30;;
990;SDS011;484;48.128;11.602;2022-10-16T06:07:23;1.47;;;1.30;;
990;SDS011;484;48.128;11.602;2022-10-16T06:10:10;6.20;;;1.83;;
990;SDS011;484;48.128;11.602;2022-10-16T06:12:55;0.80;;;0.80;;
990;SDS011;484;48.128;11.602;2022-10-16T06:15:41;1.23;;;1.17;;
990;SDS011;484;48.128;11.602;2022-10-16T06:18:27;1.10;;;1.10;;
990;SDS011;484;48.128;11.602;2022-10-16T06:21:14;1.30;;;1.10;;
990;SDS011;484;48.128;11.602;2022-10-16T06:24:01;2.70;;;1.63;;
990;SDS011;484;48.128;11.602;2022-10-16T06:26:48;1.93;;;1.37;;
990;SDS011;484;48.128;11.602;2022-10-16T06:29:33;2.00;;;1.90;;
990;SDS011;484;48.128;11.602;2022-10-16T06:32:19;0.70;;;0.70;;
990;SDS011;484;48.128;11.602;2022-10-16T06:35:04;2.13;;;1.93;;
990;SDS011;484;48.128;11.602;2022-10-16T06:37:49;1.50;;;1.40;;
990;SDS011;484;48.128;11.602;2022-10-16T06:40:35;2.10;;;1.90;;
990;SDS011;484;48.128;11.602;2022-10-16T06:43:22;1.90;;;1.80;;
990;SDS011;484;48.128;11.602;2022-10-16T06:46:09;1.40;;;1.30;;
990;SDS011;484;48.128;11.602;2022-10-16T06:48:55;1.57;;;1.47;;
990;SDS011;484;48.128;11.602;2022-10-16T06:51:40;1.23;;;1.23;;
990;SDS011;484;48.128;11.602;2022-10-16T06:54:26;1.27;;;1.23;;
990;SDS011;484;48.128;11.602;2022-10-16T06:57:11;2.23;;;1.60;;
990;SDS011;484;48.128;11.602;2022-10-16T06:59:58;1.50;;;1.40;;
990;SDS011;484;48.128;11.602;2022-10-16T07:02:43;1.20;;;1.20;;
990;SDS011;484;48.128;11.602;2022-10-16T07:05:29;1.93;;;1.83;;
990;SDS011;484;48.128;11.602;2022-10-16T07:08:14;1.60;;;1.43;;
990;SDS011;484;48.128;11.602;2022-10-16T07:11:00;1.33;;;1.23;;
990;SDS011;484;48.128;11.602;2022-10-16T07:13:46;1.40;;;1.30;;
990;SDS011;484;48.128;11.602;2022-10-16T07:16:33;1.90;;;1.80;;
990;SDS011;484;48.128;11.602;2022-10-16T07:19:18;4.80;;;1.80;;
990;SDS011;484;48.128;11.602;2022-10-16T07:22:04;2.33;;;1.47;;
990;SDS011;484;48.128;11.602;2022-10-16T07:24:49;2.80;;;2.10;;
990;SDS011;484;48.128;11.602;2022-10-16T07:27:35;1.70;;;1.60;;
990;SDS011;484;48.128;11.602;2022-10-16T07:30:20;1.47;;;1.37;;
990;SDS011;484;48.128;11.602;2022-10-16T07:33:07;1.40;;;1.30;;
990;SDS011;484;48.128;11.602;2022-10-16T07:35:53;1.90;;;1.80;;
990;SDS011;484;48.128;11.602;2022-10-16T07:38:39;1.87;;;1.77;;
990;SDS011;484;48.128;11.602;2022-10-16T07:41:26;4.43;;;1.80;;
990;SDS011;484;48.128;11.602;2022-10-16T07:44:11;4.13;;;1.50;;
990;SDS011;484;48.128;11.602;2022-10-16T07:46:57;1.70;;;1.60;;
990;SDS011;484;48.128;11.602;2022-10-16T07:49:43;1.80;;;1.70;;
990;SDS011;484;48.128;11.602;2022-10-16T07:52:29;2.37;;;1.57;;
990;SDS011;484;48.128;11.602;2022-10-16T07:55:14;2.33;;;2.20;;
990;SDS011;484;48.128;11.602;2022-10-16T07:58:00;2.03;;;1.83;;
990;SDS011;484;48.128;11.602;2022-10-16T08:00:45;1.43;;;1.33;;
990;SDS011;484;48.128;11.602;2022-10-16T08:03:30;2.47;;;2.27;;
990;SDS011;484;48.128;11.602;2022-10-16T08:06:18;2.13;;;1.70;;
990;SDS011;484;48.128;11.602;2022-10-16T08:09:05;1.73;;;1.60;;
990;SDS011;484;48.128;11.602;2022-10-16T08:11:50;2.73;;;2.47;;
990;SDS011;484;48.128;11.602;2022-10-16T08:14:36;1.90;;;1.80;;
990;SDS011;484;48.128;11.602;2022-10-16T08:17:21;2.47;;;2.27;;
990;SDS011;484;48.128;11.602;2022-10-16T08:20:07;1.90;;;1.80;;
990;SDS011;484;48.128;11.602;2022-10-16T08:22:55;1.40;;;1.30;;
990;SDS011;484;48.128;11.602;2022-10-16T08:25:41;4.90;;;3.00;;
990;SDS011;484;48.128;11.602;2022-10-16T08:28:27;1.87;;;1.77;;
990;SDS011;484;48.128;11.602;2022-10-16T08:31:13;1.93;;;1.73;;
990;SDS011;484;48.128;11.602;2022-10-16T08:33:59;1.83;;;1.73;;
990;SDS011;484;48.128;11.602;2022-10-16T08:36:46;1.67;;;1.53;;
990;SDS011;484;48.128;11.602;2022-10-16T08:39:33;1.83;;;1.37;;
990;SDS011;484;48.128;11.602;2022-10-16T08:42:21;3.83;;;1.97;;
990;SDS011;484;48.128;11.602;2022-10-16T08:45:30;2.10;;;2.00;;
990;SDS011;484;48.128;11.602;2022-10-16T08:48:20;1.70;;;1.60;;
990;SDS011;484;48.128;11.602;2022-10-16T08:51:11;2.93;;;2.60;;
990;SDS011;484;48.128;11.602;2022-10-16T08:53:59;1.60;;;1.50;;
990;SDS011;484;48.128;11.602;2022-10-16T08:56:48;1.40;;;1.30;;
990;SDS011;484;48.128;11.602;2022-10-16T08:59:33;4.63;;;1.67;;
990;SDS011;484;48.128;11.602;2022-10-16T09:02:22;1.60;;;1.50;;
990;SDS011;484;48.128;11.602;2022-10-16T09:05:21;1.80;;;1.70;;
990;SDS011;484;48.128;11.602;2022-10-16T09:08:13;2.13;;;1.93;;
990;SDS011;484;48.128;11.602;2022-10-16T09:11:05;2.37;;;1.60;;
990;SDS011;484;48.128;11.602;2022-10-16T09:13:56;1.60;;;1.50;;
990;SDS011;484;48.128;11.602;2022-10-16T09:16:46;1.73;;;1.63;;
990;SDS011;484;48.128;11.602;2022-10-16T09:19:36;2.00;;;1.90;;
990;SDS011;484;48.128;11.602;2022-10-16T09:22:25;2.77;;;2.57;;
990;SDS011;484;48.128;11.602;2022-10-16T09:25:19;1.63;;;1.50;;
990;SDS011;484;48.128;11.602;2022-10-16T09:28:07;2.27;;;2.17;;
990;SDS011;484;48.128;11.602;2022-10-16T09:30:54;1.67;;;1.57;;
990;SDS011;484;48.128;11.602;2022-10-16T09:33:40;1.27;;;1.23;;
990;SDS011;484;48.128;11.602;2022-10-16T09:36:26;1.30;;;1.20;;
990;SDS011;484;48.128;11.602;2022-10-16T09:39:12;1.50;;;1.40;;
990;SDS011;484;48.128;11.602;2022-10-16T09:41:59;1.70;;;1.60;;
990;SDS011;484;48.128;11.602;2022-10-16T09:44:47;1.77;;;1.60;;
990;SDS011;484;48.128;11.602;2022-10-16T09:47:43;2.20;;;2.00;;
990;SDS011;484;48.128;11.602;2022-10-16T09:50:29;1.50;;;1.40;;
990;SDS011;484;48.128;11.602;2022-10-16T09:53:16;1.73;;;1.63;;
990;SDS011;484;48.128;11.602;2022-10-16T09:56:06;1.73;;;1.63;;
990;SDS011;484;48.128;11.602;2022-10-16T09:58:53;1.20;;;1.20;;
990;SDS011;484;48.128;11.602;2022-10-16T10:01:40;1.83;;;1.73;;
990;SDS011;484;48.128;11.602;2022-10-16T10:04:36;3.30;;;2.37;;
990;SDS011;484;48.128;11.602;2022-10-16T10:07:24;1.40;;;1.30;;
990;SDS011;484;48.128;11.602;2022-10-16T10:10:18;2.60;;;2.40;;
990;SDS011;484;48.128;11.602;2022-10-16T10:13:14;2.33;;;2.20;;
990;SDS011;484;48.128;11.602;2022-10-16T10:16:02;2.20;;;2.10;;
990;SDS011;484;48.128;11.602;2022-10-16T10:18:57;1.77;;;1.67;;
990;SDS011;484;48.128;11.602;2022-10-16T10:21:44;2.10;;;2.00;;
990;SDS011;484;48.128;11.602;2022-10-16T10:24:30;2.60;;;2.40;;
990;SDS011;484;48.128;11.602;2022-10-16T10:27:16;2.15;;;2.05;;
990;SDS011;484;48.128;11.602;2022-10-16T10:30:03;2.05;;;1.95;;
990;SDS011;484;48.128;11.602;2022-10-16T10:32:56;1.67;;;1.58;;
990;SDS011;484;48.128;11.602;2022-10-16T10:35:55;1.77;;;1.67;;
990;SDS011;484;48.128;11.602;2022-10-16T10:38:47;1.43;;;1.33;;
990;SDS011;484;48.128;11.602;2022-10-16T10:41:44;1.57;;;1.47;;
990;SDS011;484;48.128;11.602;2022-10-16T10:47:59;5.13;;;3.10;;
990;SDS011;484;48.128;11.602;2022-10-16T10:50:56;3.40;;;2.13;;
990;SDS011;484;48.128;11.602;2022-10-16T10:53:44;2.17;;;2.07;;
990;SDS011;484;48.128;11.602;2022-10-16T10:56:42;2.53;;;2.43;;
990;SDS011;484;48.128;11.602;2022-10-16T11:02:48;4.50;;;4.20;;
990;SDS011;484;48.128;11.602;2022-10-16T11:05:40;3.35;;;3.08;;
990;SDS011;484;48.128;11.602;2022-10-16T11:08:27;4.35;;;4.05;;
990;SDS011;484;48.128;11.602;2022-10-16T11:11:18;1.55;;;1.45;;
990;SDS011;484;48.128;11.602;2022-10-16T11:14:10;1.65;;;1.55;;
990;SDS011;484;48.128;11.602;2022-10-16T11:17:01;1.98;;;1.88;;
990;SDS011;484;48.128;11.602;2022-10-16T11:19:51;2.10;;;2.00;;
990;SDS011;484;48.128;11.602;2022-10-16T11:22:38;2.33;;;2.22;;
990;SDS011;484;48.128;11.602;2022-10-16T11:25:27;1.70;;;1.60;;
990;SDS011;484;48.128;11.602;2022-10-16T11:28:15;1.75;;;1.65;;
990;SDS011;484;48.128;11.602;2022-10-16T11:31:05;1.10;;;1.10;;
990;SDS011;484;48.128;11.602;2022-10-16T11:33:55;1.88;;;1.77;;
990;SDS011;484;48.128;11.602;2022-10-16T11:36:47;1.50;;;1.40;;
990;SDS011;484;48.128;11.602;2022-10-16T11:39:36;1.50;;;1.40;;
990;SDS011;484;48.128;11.602;2022-10-16T11:42:25;2.00;;;1.90;;
990;SDS011;484;48.128;11.602;2022-10-16T11:45:19;2.00;;;1.90;;
990;SDS011;484;48.128;11.602;2022-10-16T11:48:12;1.20;;;1.10;;
990;SDS011;484;48.128;11.602;2022-10-16T11:51:05;3.13;;;2.30;;
990;SDS011;484;48.128;11.602;2022-10-16T11:53:57;2.07;;;1.97;;
990;SDS011;484;48.128;11.602;2022-10-16T11:56:46;1.93;;;1.73;;
990;SDS011;484;48.128;11.602;2022-10-16T11:59:35;1.10;;;1.00;;
990;SDS011;484;48.128;11.602;2022-10-16T12:02:29;1.30;;;1.20;;
990;SDS011;484;48.128;11.602;2022-10-16T12:05:32;1.20;;;1.13;;
990;SDS011;484;48.128;11.602;2022-10-16T12:08:22;1.40;;;1.30;;
990;SDS011;484;48.128;11.602;2022-10-16T12:11:08;1.57;;;1.23;;
990;SDS011;484;48.128;11.602;2022-10-16T12:14:04;0.90;;;0.90;;
990;SDS011;484;48.128;11.602;2022-10-16T12:17:04;2.43;;;1.87;;
990;SDS011;484;48.128;11.602;2022-10-16T12:23:16;1.30;;;1.20;;
990;SDS011;484;48.128;11.602;2022-10-16T12:26:06;1.20;;;1.20;;
990;SDS011;484;48.128;11.602;2022-10-16T12:28:51;1.53;;;1.43;;
990;SDS011;484;48.128;11.602;2022-10-16T12:31:37;1.00;;;1.00;;
990;SDS011;484;48.128;11.602;2022-10-16T12:34:32;1.40;;;1.30;;
990;SDS011;484;48.128;11.602;2022-10-16T12:37:24;1.63;;;1.50;;
990;SDS011;484;48.128;11.602;2022-10-16T12:40:11;4.57;;;1.67;;
990;SDS011;484;48.128;11.602;2022-10-16T12:42:57;1.20;;;1.10;;
990;SDS011;484;48.128;11.602;2022-10-16T12:45:43;2.13;;;1.60;;
990;SDS011;484;48.128;11.602;2022-10-16T12:48:30;0.90;;;0.90;;
990;SDS011;484;48.128;11.602;2022-10-16T12:51:22;6.03;;;2.57;;
990;SDS011;484;48.128;11.602;2022-10-16T12:54:13;1.50;;;1.40;;
990;SDS011;484;48.128;11.602;2022-10-16T12:57:13;1.53;;;1.43;;
990;SDS011;484;48.128;11.602;2022-10-16T13:00:12;1.23;;;1.13;;
990;SDS011;484;48.128;11.602;2022-10-16T13:03:08;1.77;;;1.30;;
990;SDS011;484;48.128;11.602;2022-10-16T13:06:14;2.50;;;1.20;;
990;SDS011;484;48.128;11.602;2022-10-16T13:09:08;1.60;;;1.03;;
990;SDS011;484;48.128;11.602;2022-10-16T13:15:19;1.70;;;1.60;;
990;SDS011;484;48.128;11.602;2022-10-16T13:18:12;1.47;;;1.20;;
990;SDS011;484;48.128;11.602;2022-10-16T13:21:02;1.03;;;0.97;;
990;SDS011;484;48.128;11.602;2022-10-16T13:23:55;1.97;;;1.60;;
990;SDS011;484;48.128;11.602;2022-10-16T13:26:46;1.27;;;1.17;;
990;SDS011;484;48.128;11.602;2022-10-16T13:29:35;0.80;;;0.80;;
990;SDS011;484;48.128;11.602;2022-10-16T13:32:21;1.40;;;1.30;;
990;SDS011;484;48.128;11.602;2022-10-16T13:35:18;1.20;;;1.10;;
990;SDS011;484;48.128;11.602;2022-10-16T13:38:08;1.70;;;1.60;;
990;SDS011;484;48.128;11.602;2022-10-16T13:40:57;1.40;;;1.17;;
990;SDS011;484;48.128;11.602;2022-10-16T13:43:46;1.30;;;1.20;;
990;SDS011;484;48.128;11.602;2022-10-16T13:46:34;2.00;;;1.23;;
990;SDS011;484;48.128;11.602;2022-10-16T13:49:22;1.40;;;1.30;;
990;SDS011;484;48.128;11.602;2022-10-16T13:52:15;1.10;;;1.00;;
990;SDS011;484;48.128;11.602;2022-10-16T13:55:02;2.87;;;1.10;;
990;SDS011;484;48.128;11.602;2022-10-16T13:57:48;1.10;;;1.00;;
990;SDS011;484;48.128;11.602;2022-10-16T14:00:35;1.20;;;1.20;;
990;SDS011;484;48.128;11.602;2022-10-16T14:03:20;1.37;;;1.27;;
990;SDS011;484;48.128;11.602;2022-10-16T14:06:06;1.30;;;1.20;;
990;SDS011;484;48.128;11.602;2022-10-16T14:08:58;1.90;;;1.80;;
990;SDS011;484;48.128;11.602;2022-10-16T14:11:45;1.00;;;1.00;;
990;SDS011;484;48.128;11.602;2022-10-16T14:14:34;1.20;;;1.10;;
990;SDS011;484;48.128;11.602;2022-10-16T14:17:23;1.50;;;1.40;;
990;SDS011;484;48.128;11.602;2022-10-16T14:20:12;1.20;;;1.10;;
990;SDS011;484;48.128;11.602;2022-10-16T14:23:00;1.67;;;1.10;;
990;SDS011;484;48.128;11.602;2022-10-16T14:25:47;1.30;;;1.20;;
990;SDS011;484;48.128;11.602;2022-10-16T14:28:32;1.53;;;1.30;;
990;SDS011;484;48.128;11.602;2022-10-16T14:31:29;1.27;;;1.17;;
990;SDS011;484;48.128;11.602;2022-10-16T14:34:24;2.00;;;1.80;;
990;SDS011;484;48.128;11.602;2022-10-16T14:37:15;1.27;;;1.17;;
990;SDS011;484;48.128;11.602;2022-10-16T14:40:04;1.27;;;1.17;;
990;SDS011;484;48.128;11.602;2022-10-16T14:42:50;0.90;;;0.90;;
990;SDS011;484;48.128;11.602;2022-10-16T14:45:35;1.60;;;1.50;;
990;SDS011;484;48.128;11.602;2022-10-16T14:48:22;1.60;;;1.50;;
990;SDS011;484;48.128;11.602;2022-10-16T14:51:09;1.23;;;1.13;;
990;SDS011;484;48.128;11.602;2022-10-16T14:53:58;1.43;;;1.20;;
990;SDS011;484;48.128;11.602;2022-10-16T14:56:45;1.70;;;1.60;;
990;SDS011;484;48.128;11.602;2022-10-16T14:59:33;1.47;;;1.37;;
990;SDS011;484;48.128;11.602;2022-10-16T15:02:22;5.03;;;1.80;;
990;SDS011;484;48.128;11.602;2022-10-16T15:05:11;2.50;;;1.20;;
990;SDS011;484;48.128;11.602;2022-10-16T15:08:00;1.37;;;1.27;;
990;SDS011;484;48.128;11.602;2022-10-16T15:10:45;1.20;;;1.20;;
990;SDS011;484;48.128;11.602;2022-10-16T15:13:31;1.57;;;1.47;;
990;SDS011;484;48.128;11.602;2022-10-16T15:16:16;1.10;;;1.10;;
990;SDS011;484;48.128;11.602;2022-10-16T15:19:01;1.40;;;1.30;;
990;SDS011;484;48.128;11.602;2022-10-16T15:21:47;2.07;;;1.97;;
990;SDS011;484;48.128;11.602;2022-10-16T15:24:34;1.60;;;1.50;;
990;SDS011;484;48.128;11.602;2022-10-16T15:27:19;1.37;;;1.30;;
990;SDS011;484;48.128;11.602;2022-10-16T15:30:04;1.40;;;1.30;;
990;SDS011;484;48.128;11.602;2022-10-16T15:32:50;2.23;;;2.03;;
990;SDS011;484;48.128;11.602;2022-10-16T15:35:36;2.63;;;2.43;;
990;SDS011;484;48.128;11.602;2022-10-16T15:38:21;2.60;;;2.40;;
990;SDS011;484;48.128;11.602;2022-10-16T15:41:09;2.83;;;2.50;;
990;SDS011;484;48.128;11.602;2022-10-16T15:43:54;3.27;;;2.43;;
990;SDS011;484;48.128;11.602;2022-10-16T15:46:40;4.50;;;3.57;;
990;SDS011;484;48.128;11.602;2022-10-16T15:49:25;2.17;;;2.00;;
990;SDS011;484;48.128;11.602;2022-10-16T15:52:11;2.00;;;1.80;;
990;SDS011;484;48.128;11.602;2022-10-16T15:54:56;1.60;;;1.50;;
990;SDS011;484;48.128;11.602;2022-10-16T15:57:43;1.70;;;1.60;;
990;SDS011;484;48.128;11.602;2022-10-16T16:00:28;1.93;;;1.80;;
990;SDS011;484;48.128;11.602;2022-10-16T16:03:14;2.23;;;2.10;;
990;SDS011;484;48.128;11.602;2022-10-16T16:06:03;1.80;;;1.50;;
990;SDS011;484;48.128;11.602;2022-10-16T16:08:49;2.50;;;2.00;;
990;SDS011;484;48.128;11.602;2022-10-16T16:11:34;1.83;;;1.73;;
990;SDS011;484;48.128;11.602;2022-10-16T16:14:23;1.70;;;1.60;;
990;SDS011;484;48.128;11.602;2022-10-16T16:17:10;2.70;;;2.40;;
990;SDS011;484;48.128;11.602;2022-10-16T16:19:56;1.80;;;1.70;;
990;SDS011;484;48.128;11.602;2022-10-16T16:22:41;1.77;;;1.67;;
990;SDS011;484;48.128;11.602;2022-10-16T16:25:27;6.93;;;3.50;;
990;SDS011;484;48.128;11.602;2022-10-16T16:28:12;3.70;;;3.40;;
990;SDS011;484;48.128;11.602;2022-10-16T16:30:59;1.93;;;1.73;;
990;SDS011;484;48.128;11.602;2022-10-16T16:33:44;1.70;;;1.60;;
990;SDS011;484;48.128;11.602;2022-10-16T16:36:30;2.00;;;1.60;;
990;SDS011;484;48.128;11.602;2022-10-16T16:39:16;2.90;;;2.70;;
990;SDS011;484;48.128;11.602;2022-10-16T16:42:01;4.27;;;2.63;;
990;SDS011;484;48.128;11.602;2022-10-16T16:44:47;2.83;;;2.37;;
990;SDS011;484;48.128;11.602;2022-10-16T16:47:34;3.40;;;2.53;;
990;SDS011;484;48.128;11.602;2022-10-16T16:50:19;2.07;;;1.97;;
990;SDS011;484;48.128;11.602;2022-10-16T16:53:05;3.07;;;2.40;;
990;SDS011;484;48.128;11.602;2022-10-16T16:55:50;2.87;;;2.67;;
990;SDS011;484;48.128;11.602;2022-10-16T16:58:36;2.00;;;1.90;;
990;SDS011;484;48.128;11.602;2022-10-16T17:01:21;2.17;;;1.60;;
990;SDS011;484;48.128;11.602;2022-10-16T17:04:09;2.50;;;2.33;;
990;SDS011;484;48.128;11.602;2022-10-16T17:06:55;5.70;;;3.03;;
990;SDS011;484;48.128;11.602;2022-10-16T17:09:41;6.40;;;3.57;;
990;SDS011;484;48.128;11.602;2022-10-16T17:12:26;4.63;;;3.00;;
990;SDS011;484;48.128;11.602;2022-10-16T17:15:12;6.10;;;4.80;;
990;SDS011;484;48.128;11.602;2022-10-16T17:17:58;4.80;;;3.70;;
990;SDS011;484;48.128;11.602;2022-10-16T17:20:45;5.20;;;4.57;;
990;SDS011;484;48.128;11.602;2022-10-16T17:23:31;5.57;;;3.60;;
990;SDS011;484;48.128;11.602;2022-10-16T17:26:17;4.33;;;3.93;;
990;SDS011;484;48.128;11.602;2022-10-16T17:29:03;5.43;;;3.50;;
990;SDS011;484;48.128;11.602;2022-10-16T17:31:49;4.33;;;3.53;;
990;SDS011;484;48.128;11.602;2022-10-16T17:34:35;5.23;;;3.60;;
990;SDS011;484;48.128;11.602;2022-10-16T17:37:22;5.10;;;3.40;;
990;SDS011;484;48.128;11.602;2022-10-16T17:40:09;5.50;;;4.40;;
990;SDS011;484;48.128;11.602;2022-10-16T17:42:55;4.33;;;3.87;;
990;SDS011;484;48.128;11.602;2022-10-16T17:45:40;5.20;;;3.33;;
990;SDS011;484;48.128;11.602;2022-10-16T17:48:26;6.07;;;4.63;;
990;SDS011;484;48.128;11.602;2022-10-16T17:51:13;3.83;;;3.40;;